createdAt,value
2023-12-09T00:00:18.444Z,44.8
2023-12-09T00:01:23.259Z,48.1
2023-12-09T00:02:28.114Z,46.3
2023-12-09T00:03:32.972Z,48
2023-12-09T00:04:38.137Z,47
2023-12-09T00:05:42.757Z,47.6
2023-12-09T00:06:52.781Z,49.2
2023-12-09T00:07:57.415Z,48.3
2023-12-09T00:09:02.353Z,49.4
2023-12-09T00:10:07.176Z,46.6
2023-12-09T00:11:12.220Z,46.9
2023-12-09T00:12:17.161Z,45.8
2023-12-09T00:13:21.801Z,45.4
2023-12-09T00:14:26.554Z,47.7
2023-12-09T00:15:31.345Z,46.9
2023-12-09T00:16:36.069Z,44.9
2023-12-09T00:17:40.816Z,46.2
2023-12-09T00:18:45.941Z,45
2023-12-09T00:19:50.658Z,45.5
2023-12-09T00:20:55.438Z,46.5
2023-12-09T00:22:00.178Z,44.2
2023-12-09T00:23:04.947Z,43.3
2023-12-09T00:24:09.712Z,44.8
2023-12-09T00:25:14.645Z,45
2023-12-09T00:26:19.244Z,45.9
2023-12-09T00:27:24.087Z,44.1
2023-12-09T00:28:28.800Z,45.2
2023-12-09T00:29:33.511Z,45.7
2023-12-09T00:30:38.407Z,45.3
2023-12-09T00:31:43.061Z,45.6
2023-12-09T00:32:47.906Z,45.4
2023-12-09T00:33:52.718Z,47.8
2023-12-09T00:34:57.381Z,46.5
2023-12-09T00:36:02.225Z,47.5
2023-12-09T00:37:07.294Z,46.1
2023-12-09T00:38:11.925Z,45.3
2023-12-09T00:39:16.712Z,47
2023-12-09T00:40:21.502Z,46.1
2023-12-09T00:41:26.317Z,46.4
2023-12-09T00:42:31.291Z,44.7
2023-12-09T00:43:36.089Z,47.5
2023-12-09T00:44:40.787Z,46.7
2023-12-09T00:45:45.699Z,48.8
2023-12-09T00:46:50.628Z,46.7
2023-12-09T00:47:55.453Z,46
2023-12-09T00:49:00.409Z,49.7
2023-12-09T00:50:04.897Z,49.2
2023-12-09T00:51:09.994Z,47.2
2023-12-09T00:52:14.952Z,48.1
2023-12-09T00:53:19.749Z,47.2
2023-12-09T00:54:24.498Z,47
2023-12-09T00:55:29.439Z,46.2
2023-12-09T00:56:35.272Z,47.9
2023-12-09T00:57:39.111Z,45.7
2023-12-09T00:58:44.011Z,48.3
2023-12-09T00:59:48.870Z,45.7
2023-12-09T01:00:53.612Z,48.5
2023-12-09T01:01:58.406Z,46.4
2023-12-09T01:03:03.282Z,46
2023-12-09T01:04:08.232Z,44.6
2023-12-09T01:05:13.025Z,46.2
2023-12-09T01:06:17.754Z,46
2023-12-09T01:07:22.460Z,45.8
2023-12-09T01:08:27.372Z,44.6
2023-12-09T01:09:32.198Z,45.2
2023-12-09T01:10:36.781Z,44.7
2023-12-09T01:11:41.542Z,44.5
2023-12-09T01:12:46.358Z,45.5
2023-12-09T01:13:51.339Z,45.4
2023-12-09T01:14:56.259Z,45.2
2023-12-09T01:16:01.143Z,42
2023-12-09T01:17:06.108Z,45.6
2023-12-09T01:18:11.017Z,46.3
2023-12-09T01:19:15.749Z,47
2023-12-09T01:20:20.598Z,47.5
2023-12-09T01:21:25.530Z,47.3
2023-12-09T01:22:30.305Z,47.6
2023-12-09T01:23:35.039Z,48.5
2023-12-09T01:24:39.827Z,48
2023-12-09T01:25:44.584Z,50.9
2023-12-09T01:26:49.358Z,51.3
2023-12-09T01:27:54.110Z,49.6
2023-12-09T01:28:58.872Z,48.2
2023-12-09T01:30:03.727Z,50.5
2023-12-09T01:31:08.927Z,51.2
2023-12-09T01:32:13.660Z,48.6
2023-12-09T01:33:18.673Z,48
2023-12-09T01:34:23.315Z,43
2023-12-09T01:35:27.984Z,44.5
2023-12-09T01:36:32.873Z,45.2
2023-12-09T01:37:37.518Z,45
2023-12-09T01:38:42.313Z,45.3
2023-12-09T01:39:47.024Z,44.3
2023-12-09T01:40:51.832Z,42.3
2023-12-09T01:41:56.651Z,44.4
2023-12-09T01:43:01.414Z,42.7
2023-12-09T01:44:06.177Z,42.2
2023-12-09T01:45:11.021Z,39
2023-12-09T01:46:15.687Z,39.1
2023-12-09T01:47:20.438Z,38
2023-12-09T01:48:25.533Z,38
2023-12-09T01:49:30.352Z,38.3
2023-12-09T01:50:35.058Z,37
2023-12-09T01:51:39.920Z,36.9
2023-12-09T01:52:44.533Z,35
2023-12-09T01:53:49.268Z,34.5
2023-12-09T01:54:54.093Z,34.5
2023-12-09T01:55:58.813Z,35.2
2023-12-09T01:57:03.684Z,33.8
2023-12-09T01:58:08.422Z,34
2023-12-09T01:59:13.152Z,35.3
2023-12-09T02:00:20.023Z,33.8
2023-12-09T02:01:22.965Z,34.4
2023-12-09T02:02:27.856Z,34.6
2023-12-09T02:03:32.578Z,34.4
2023-12-09T02:04:37.461Z,36.4
2023-12-09T02:05:42.287Z,34.6
2023-12-09T02:06:47.009Z,36.1
2023-12-09T02:07:51.886Z,36.6
2023-12-09T02:08:56.581Z,38.7
2023-12-09T02:10:01.358Z,39.2
2023-12-09T02:11:06.326Z,40.7
2023-12-09T02:12:16.164Z,41.3
2023-12-09T02:13:26.052Z,42
2023-12-09T02:14:36.765Z,44.8
2023-12-09T02:15:49.482Z,43.7
2023-12-09T02:16:56.851Z,42.5
2023-12-09T02:18:04.494Z,40.7
2023-12-09T02:19:09.253Z,38.7
2023-12-09T02:20:13.969Z,40.4
2023-12-09T02:21:18.903Z,38.4
2023-12-09T02:22:23.505Z,37.6
2023-12-09T02:23:28.245Z,36.7
2023-12-09T02:24:33.171Z,36.5
2023-12-09T02:25:37.796Z,35.5
2023-12-09T02:26:42.572Z,35.9
2023-12-09T02:27:47.307Z,35.1
2023-12-09T02:28:52.122Z,35.7
2023-12-09T02:29:56.970Z,33.8
2023-12-09T02:31:06.576Z,33.5
2023-12-09T02:32:16.378Z,35
2023-12-09T02:33:21.266Z,34.4
2023-12-09T02:34:26.059Z,35.5
2023-12-09T02:35:30.694Z,34.9
2023-12-09T02:36:35.520Z,33.1
2023-12-09T02:37:40.207Z,34
2023-12-09T02:38:44.973Z,33.3
2023-12-09T02:39:49.756Z,34.8
2023-12-09T02:40:54.796Z,33.5
2023-12-09T02:41:59.623Z,34.2
2023-12-09T02:43:04.307Z,33.7
2023-12-09T02:44:09.101Z,32.6
2023-12-09T02:45:14.194Z,33.3
2023-12-09T02:46:18.900Z,33.7
2023-12-09T02:47:23.695Z,32.4
2023-12-09T02:48:28.585Z,32.1
2023-12-09T02:49:33.380Z,33.7
2023-12-09T02:50:37.922Z,31.9
2023-12-09T02:51:42.970Z,33.6
2023-12-09T02:52:47.771Z,33.9
2023-12-09T02:53:52.515Z,34.9
2023-12-09T02:54:57.333Z,35
2023-12-09T02:56:02.085Z,34.8
2023-12-09T02:57:06.915Z,35
2023-12-09T02:58:11.633Z,35.2
2023-12-09T02:59:16.355Z,35.8
2023-12-09T03:00:21.189Z,36.7
2023-12-09T03:01:26.010Z,35.2
2023-12-09T03:02:30.640Z,35.8
2023-12-09T03:03:35.593Z,34.5
2023-12-09T03:04:40.192Z,36.4
2023-12-09T03:05:45.008Z,37.1
2023-12-09T03:06:49.826Z,37.7
2023-12-09T03:07:54.494Z,37.9
2023-12-09T03:08:59.357Z,36.4
2023-12-09T03:10:04.092Z,36.6
2023-12-09T03:11:09.065Z,37.2
2023-12-09T03:12:13.868Z,36.8
2023-12-09T03:13:18.642Z,37.2
2023-12-09T03:14:23.335Z,36.9
2023-12-09T03:15:28.359Z,37.1
2023-12-09T03:16:32.904Z,38.5
2023-12-09T03:17:37.727Z,37.4
2023-12-09T03:18:42.653Z,38.3
2023-12-09T03:19:47.279Z,37.3
2023-12-09T03:20:51.963Z,37.8
2023-12-09T03:21:56.760Z,37.5
2023-12-09T03:23:01.638Z,38
2023-12-09T03:24:06.610Z,38.6
2023-12-09T03:25:11.314Z,37.9
2023-12-09T03:26:16.042Z,37.4
2023-12-09T03:27:20.835Z,37.9
2023-12-09T03:28:25.654Z,37
2023-12-09T03:29:30.333Z,39.6
2023-12-09T03:30:35.216Z,36.2
2023-12-09T03:31:39.913Z,36.9
2023-12-09T03:32:44.702Z,36
2023-12-09T03:33:49.595Z,36.6
2023-12-09T03:34:54.327Z,35.2
2023-12-09T03:35:59.136Z,34.8
2023-12-09T03:37:03.978Z,36.6
2023-12-09T03:38:08.882Z,34
2023-12-09T03:39:13.553Z,35
2023-12-09T03:40:18.321Z,33.3
2023-12-09T03:41:25.915Z,35.4
2023-12-09T03:42:28.338Z,35.3
2023-12-09T03:43:32.913Z,34.3
2023-12-09T03:44:37.830Z,34.2
2023-12-09T03:45:42.669Z,34.4
2023-12-09T03:46:47.450Z,33.1
2023-12-09T03:47:52.480Z,34
2023-12-09T03:48:57.427Z,34.6
2023-12-09T03:50:02.044Z,34.7
2023-12-09T03:51:06.832Z,35
2023-12-09T03:52:11.566Z,33.1
2023-12-09T03:53:16.314Z,33.6
2023-12-09T03:54:26.190Z,33.1
2023-12-09T03:55:31.016Z,32.5
2023-12-09T03:56:35.739Z,33.1
2023-12-09T03:57:40.542Z,33.3
2023-12-09T03:58:45.275Z,33.6
2023-12-09T03:59:49.993Z,33.2
2023-12-09T04:00:54.848Z,32.6
2023-12-09T04:02:00.799Z,31.7
2023-12-09T04:03:04.443Z,31.8
2023-12-09T04:04:09.128Z,30.4
2023-12-09T04:05:13.974Z,32.6
2023-12-09T04:06:18.657Z,33.6
2023-12-09T04:07:23.458Z,33.8
2023-12-09T04:08:28.167Z,32.4
2023-12-09T04:09:33.035Z,31.5
2023-12-09T04:10:37.864Z,32.6
2023-12-09T04:11:42.865Z,30.2
2023-12-09T04:12:47.767Z,29
2023-12-09T04:13:52.533Z,29
2023-12-09T04:14:57.285Z,29.9
2023-12-09T04:16:02.170Z,29.5
2023-12-09T04:17:07.128Z,29.1
2023-12-09T04:18:11.952Z,28.9
2023-12-09T04:19:16.729Z,28.5
2023-12-09T04:20:21.521Z,26.9
2023-12-09T04:21:26.219Z,27.7
2023-12-09T04:22:30.936Z,26.6
2023-12-09T04:23:35.904Z,25.9
2023-12-09T04:24:40.796Z,25.9
2023-12-09T04:25:45.473Z,26.5
2023-12-09T04:26:50.292Z,27.4
2023-12-09T04:27:54.992Z,26.5
2023-12-09T04:28:59.816Z,24.7
2023-12-09T04:30:04.678Z,25.5
2023-12-09T04:31:09.880Z,25.5
2023-12-09T04:32:14.558Z,25.5
2023-12-09T04:33:19.557Z,23.8
2023-12-09T04:34:24.437Z,24.4
2023-12-09T04:35:29.202Z,22
2023-12-09T04:36:34.181Z,21.2
2023-12-09T04:37:38.856Z,21.7
2023-12-09T04:38:43.767Z,21.7
2023-12-09T04:39:48.623Z,23.6
2023-12-09T04:40:53.282Z,24.3
2023-12-09T04:41:58.014Z,33.1
2023-12-09T04:43:02.939Z,24.9
2023-12-09T04:44:07.855Z,24.3
2023-12-09T04:45:12.779Z,23.9
2023-12-09T04:46:17.551Z,23.6
2023-12-09T04:47:22.404Z,24.3
2023-12-09T04:48:27.310Z,23.6
2023-12-09T04:49:31.946Z,22.5
2023-12-09T04:50:36.779Z,23.9
2023-12-09T04:51:41.542Z,23
2023-12-09T04:52:46.353Z,22.4
2023-12-09T04:53:50.995Z,23.3
2023-12-09T04:54:55.752Z,23.8
2023-12-09T04:56:00.659Z,21.8
2023-12-09T04:57:05.468Z,22.4
2023-12-09T04:58:10.043Z,22.7
2023-12-09T04:59:14.802Z,22.8
2023-12-09T05:00:19.679Z,23.5
2023-12-09T05:01:24.601Z,23.2
2023-12-09T05:02:29.532Z,21.9
2023-12-09T05:03:34.052Z,21.8
2023-12-09T05:04:38.862Z,21.8
2023-12-09T05:05:43.703Z,21.9
2023-12-09T05:06:48.512Z,20.9
2023-12-09T05:07:53.364Z,22
2023-12-09T05:08:58.221Z,20.7
2023-12-09T05:10:02.917Z,22
2023-12-09T05:11:07.936Z,22.7
2023-12-09T05:12:12.623Z,21
2023-12-09T05:13:17.337Z,20.5
2023-12-09T05:14:22.080Z,19.2
2023-12-09T05:15:27.508Z,20.2
2023-12-09T05:16:31.754Z,19.9
2023-12-09T05:17:36.412Z,19.6
2023-12-09T05:18:41.215Z,19.9
2023-12-09T05:19:46.111Z,19.9
2023-12-09T05:20:50.732Z,18.7
2023-12-09T05:21:55.484Z,19.8
2023-12-09T05:23:00.360Z,17.9
2023-12-09T05:24:05.090Z,18.9
2023-12-09T05:25:09.757Z,19.6
2023-12-09T05:26:14.673Z,19.2
2023-12-09T05:27:24.573Z,17.9
2023-12-09T05:28:29.216Z,18.5
2023-12-09T05:29:33.992Z,18
2023-12-09T05:30:38.758Z,18.2
2023-12-09T05:31:43.561Z,19
2023-12-09T05:32:48.291Z,19
2023-12-09T05:33:53.209Z,17.2
2023-12-09T05:34:57.781Z,17.9
2023-12-09T05:36:02.599Z,17
2023-12-09T05:37:07.389Z,14.4
2023-12-09T05:38:12.191Z,17
2023-12-09T05:39:16.918Z,17.1
2023-12-09T05:40:21.640Z,16
2023-12-09T05:41:26.393Z,16.6
2023-12-09T05:42:31.476Z,16.4
2023-12-09T05:43:35.964Z,15
2023-12-09T05:44:40.735Z,15.1
2023-12-09T05:45:45.704Z,14.5
2023-12-09T05:46:50.548Z,14.6
2023-12-09T05:47:55.450Z,14.2
2023-12-09T05:49:00.135Z,14.4
2023-12-09T05:50:04.858Z,15.1
2023-12-09T05:51:09.903Z,14.7
2023-12-09T05:52:14.847Z,12.9
2023-12-09T05:53:19.665Z,13.7
2023-12-09T05:54:24.473Z,12.2
2023-12-09T05:55:29.369Z,13.6
2023-12-09T05:56:34.237Z,14
2023-12-09T05:57:39.025Z,13.5
2023-12-09T05:58:43.882Z,13.7
2023-12-09T05:59:48.810Z,12.8
2023-12-09T06:00:53.586Z,12.8
2023-12-09T06:01:58.425Z,12.7
2023-12-09T06:03:03.104Z,11.8
2023-12-09T06:04:07.841Z,13
2023-12-09T06:05:12.903Z,13.2
2023-12-09T06:06:17.798Z,13.7
2023-12-09T06:07:22.530Z,13.6
2023-12-09T06:08:27.519Z,12.5
2023-12-09T06:09:32.256Z,12.1
2023-12-09T06:10:37.030Z,13.7
2023-12-09T06:11:41.731Z,13.4
2023-12-09T06:12:46.580Z,13
2023-12-09T06:13:51.401Z,13.6
2023-12-09T06:14:56.221Z,13.9
2023-12-09T06:16:01.100Z,14.1
2023-12-09T06:17:05.836Z,13.9
2023-12-09T06:18:10.710Z,15.7
2023-12-09T06:19:15.391Z,13.9
2023-12-09T06:20:20.280Z,14.2
2023-12-09T06:21:25.274Z,13.4
2023-12-09T06:22:30.050Z,13
2023-12-09T06:23:34.696Z,14.2
2023-12-09T06:24:39.465Z,14.5
2023-12-09T06:25:44.302Z,15
2023-12-09T06:26:49.048Z,13.6
2023-12-09T06:27:53.752Z,13.9
2023-12-09T06:28:58.526Z,13.4
2023-12-09T06:30:03.478Z,14.9
2023-12-09T06:31:08.629Z,15.4
2023-12-09T06:32:16.206Z,15
2023-12-09T06:33:21.021Z,14.1
2023-12-09T06:34:25.885Z,14.5
2023-12-09T06:35:30.455Z,15.2
2023-12-09T06:36:35.301Z,14.4
2023-12-09T06:37:40.059Z,14.4
2023-12-09T06:38:44.796Z,14.3
2023-12-09T06:39:49.627Z,14.7
2023-12-09T06:40:54.323Z,14.6
2023-12-09T06:41:59.106Z,14.5
2023-12-09T06:43:03.940Z,13.8
2023-12-09T06:44:08.622Z,15.2
2023-12-09T06:45:13.432Z,14.5
2023-12-09T06:46:18.328Z,14.6
2023-12-09T06:47:23.241Z,13.8
2023-12-09T06:48:28.081Z,14.1
2023-12-09T06:49:32.962Z,13.7
2023-12-09T06:50:37.750Z,14.8
2023-12-09T06:51:42.568Z,13.7
2023-12-09T06:52:47.453Z,13.8
2023-12-09T06:53:52.265Z,13.4
2023-12-09T06:54:57.120Z,13.3
2023-12-09T06:56:01.947Z,13.6
2023-12-09T06:57:06.894Z,14.2
2023-12-09T06:58:11.647Z,13.8
2023-12-09T06:59:16.466Z,13.4
2023-12-09T07:00:21.219Z,13.3
2023-12-09T07:01:25.943Z,12.6
2023-12-09T07:02:40.664Z,14.5
2023-12-09T07:03:38.085Z,13.3
2023-12-09T07:04:42.825Z,13.3
2023-12-09T07:05:47.708Z,13
2023-12-09T07:06:52.600Z,12.1
2023-12-09T07:07:57.367Z,13.1
2023-12-09T07:09:02.386Z,13.9
2023-12-09T07:10:07.155Z,13.7
2023-12-09T07:11:12.155Z,15.2
2023-12-09T07:12:16.990Z,14.2
2023-12-09T07:13:21.705Z,13.9
2023-12-09T07:14:26.487Z,12.8
2023-12-09T07:15:31.400Z,14
2023-12-09T07:16:36.028Z,15.2
2023-12-09T07:17:41.025Z,13.9
2023-12-09T07:18:45.744Z,14.1
2023-12-09T07:19:50.370Z,14
2023-12-09T07:20:55.133Z,13.1
2023-12-09T07:21:59.865Z,14.9
2023-12-09T07:23:04.612Z,14.5
2023-12-09T07:24:09.661Z,14.6
2023-12-09T07:25:14.208Z,13.1
2023-12-09T07:26:18.893Z,14.8
2023-12-09T07:27:23.793Z,15.3
2023-12-09T07:28:28.460Z,15
2023-12-09T07:29:33.936Z,15.7
2023-12-09T07:30:39.327Z,16.9
2023-12-09T07:31:44.044Z,15.4
2023-12-09T07:32:48.853Z,15.1
2023-12-09T07:33:53.690Z,16
2023-12-09T07:34:58.389Z,14.6
2023-12-09T07:36:03.213Z,14.3
2023-12-09T07:37:08.133Z,14
2023-12-09T07:38:12.889Z,14.2
2023-12-09T07:39:17.814Z,14.9
2023-12-09T07:40:22.407Z,13.7
2023-12-09T07:41:27.226Z,14.6
2023-12-09T07:42:32.206Z,15.5
2023-12-09T07:43:38.553Z,15.7
2023-12-09T07:44:41.510Z,15
2023-12-09T07:45:46.436Z,14.4
2023-12-09T07:46:51.329Z,15.7
2023-12-09T07:47:56.214Z,16
2023-12-09T07:49:00.941Z,21.7
2023-12-09T07:50:05.617Z,17
2023-12-09T07:51:10.378Z,17
2023-12-09T07:52:15.108Z,14.4
2023-12-09T07:53:19.976Z,14.7
2023-12-09T07:54:24.687Z,13.2
2023-12-09T07:55:29.462Z,15.2
2023-12-09T07:56:34.195Z,14.9
2023-12-09T07:57:39.037Z,14.2
2023-12-09T07:58:43.775Z,15.2
2023-12-09T07:59:48.861Z,13.6
2023-12-09T08:00:53.933Z,13
2023-12-09T08:01:58.622Z,14.9
2023-12-09T08:03:03.738Z,14.3
2023-12-09T08:04:11.337Z,14.9
2023-12-09T08:05:16.169Z,14.2
2023-12-09T08:06:21.024Z,15
2023-12-09T08:07:26.005Z,14.2
2023-12-09T08:08:30.621Z,14.4
2023-12-09T08:09:35.412Z,14.3
2023-12-09T08:10:40.041Z,13.6
2023-12-09T08:11:44.914Z,12.9
2023-12-09T08:12:49.621Z,13.3
2023-12-09T08:13:54.336Z,12.2
2023-12-09T08:14:59.155Z,13.7
2023-12-09T08:16:03.899Z,16.1
2023-12-09T08:17:08.920Z,14.1
2023-12-09T08:18:13.937Z,13.3
2023-12-09T08:19:18.555Z,12.5
2023-12-09T08:20:23.244Z,11.8
2023-12-09T08:21:28.070Z,13.7
2023-12-09T08:22:32.788Z,11.7
2023-12-09T08:23:37.568Z,12.8
2023-12-09T08:24:42.264Z,11.8
2023-12-09T08:25:47.074Z,13
2023-12-09T08:26:51.851Z,13
2023-12-09T08:27:56.574Z,12.6
2023-12-09T08:29:01.370Z,13.5
2023-12-09T08:30:06.334Z,14.7
2023-12-09T08:31:11.191Z,14.4
2023-12-09T08:32:15.945Z,13
2023-12-09T08:33:21.024Z,13.9
2023-12-09T08:34:25.789Z,13.6
2023-12-09T08:35:30.495Z,12.1
2023-12-09T08:36:35.444Z,13.2
2023-12-09T08:37:40.282Z,12.8
2023-12-09T08:38:44.957Z,11.4
2023-12-09T08:39:49.952Z,11.4
2023-12-09T08:40:54.631Z,13.6
2023-12-09T08:41:59.373Z,11.3
2023-12-09T08:43:04.114Z,13.4
2023-12-09T08:44:08.884Z,12.3
2023-12-09T08:45:13.694Z,13
2023-12-09T08:46:21.618Z,13.3
2023-12-09T08:47:26.296Z,13.5
2023-12-09T08:48:31.265Z,12.5
2023-12-09T08:49:36.010Z,13.1
2023-12-09T08:50:40.550Z,14.6
2023-12-09T08:51:45.348Z,14.2
2023-12-09T08:52:50.204Z,14.2
2023-12-09T08:53:54.870Z,15.2
2023-12-09T08:55:01.663Z,13.9
2023-12-09T08:56:04.392Z,15.4
2023-12-09T08:57:09.516Z,14.4
2023-12-09T08:58:14.220Z,14.8
2023-12-09T08:59:18.998Z,15.9
2023-12-09T09:00:23.749Z,13.9
2023-12-09T09:01:28.563Z,13
2023-12-09T09:02:33.428Z,14.1
2023-12-09T09:03:38.373Z,13.9
2023-12-09T09:04:43.135Z,15
2023-12-09T09:05:47.948Z,14.4
2023-12-09T09:06:52.872Z,14.1
2023-12-09T09:07:57.612Z,13.7
2023-12-09T09:09:02.463Z,18.1
2023-12-09T09:10:07.401Z,15.8
2023-12-09T09:11:12.474Z,14.9
2023-12-09T09:12:17.270Z,13.9
2023-12-09T09:13:21.981Z,14.5
2023-12-09T09:14:26.937Z,15.1
2023-12-09T09:15:31.793Z,15.1
2023-12-09T09:16:36.567Z,14.1
2023-12-09T09:17:41.406Z,16
2023-12-09T09:18:46.236Z,14.9
2023-12-09T09:19:50.834Z,16.8
2023-12-09T09:20:55.702Z,15.6
2023-12-09T09:22:00.371Z,14.6
2023-12-09T09:23:05.201Z,16.7
2023-12-09T09:24:10.144Z,17.2
2023-12-09T09:25:14.924Z,19.4
2023-12-09T09:26:19.729Z,17
2023-12-09T09:27:24.494Z,16.8
2023-12-09T09:28:29.251Z,17.4
2023-12-09T09:29:34.016Z,17.2
2023-12-09T09:30:38.814Z,16.7
2023-12-09T09:31:43.530Z,17
2023-12-09T09:32:48.399Z,17.4
2023-12-09T09:33:53.195Z,16.7
2023-12-09T09:34:57.950Z,16.1
2023-12-09T09:36:02.655Z,18
2023-12-09T09:37:07.440Z,17
2023-12-09T09:38:12.154Z,18
2023-12-09T09:39:16.943Z,18.9
2023-12-09T09:40:21.793Z,18.8
2023-12-09T09:41:26.461Z,20.1
2023-12-09T09:42:36.255Z,18.4
2023-12-09T09:43:40.892Z,18.4
2023-12-09T09:44:45.689Z,19.5
2023-12-09T09:45:58.692Z,18.4
2023-12-09T09:47:03.449Z,18
2023-12-09T09:48:08.536Z,15.2
2023-12-09T09:49:13.000Z,14.9
2023-12-09T09:50:17.710Z,15.4
2023-12-09T09:51:24.096Z,16.9
2023-12-09T09:52:30.497Z,17.6
2023-12-09T09:53:35.054Z,15.2
2023-12-09T09:54:40.091Z,16.9
2023-12-09T09:55:44.895Z,14.7
2023-12-09T09:56:49.687Z,15.4
2023-12-09T09:57:54.443Z,16.5
2023-12-09T09:58:59.207Z,17
2023-12-09T10:00:04.037Z,16.3
2023-12-09T10:01:09.014Z,16.3
2023-12-09T10:02:13.749Z,16.1
2023-12-09T10:03:18.507Z,16.6
2023-12-09T10:04:23.298Z,17
2023-12-09T10:05:28.051Z,16.9
2023-12-09T10:06:32.880Z,17.8
2023-12-09T10:07:37.528Z,16
2023-12-09T10:08:42.386Z,16.7
2023-12-09T10:09:47.148Z,16.1
2023-12-09T10:10:51.842Z,14.5
2023-12-09T10:11:56.721Z,14.2
2023-12-09T10:13:01.418Z,15.9
2023-12-09T10:14:06.163Z,16.5
2023-12-09T10:15:10.948Z,16.8
2023-12-09T10:16:15.969Z,15.8
2023-12-09T10:17:20.752Z,17
2023-12-09T10:18:25.626Z,16.9
2023-12-09T10:19:30.354Z,15.2
2023-12-09T10:20:35.130Z,14.7
2023-12-09T10:21:39.798Z,16.1
2023-12-09T10:22:44.560Z,15.5
2023-12-09T10:23:49.412Z,16.1
2023-12-09T10:24:54.116Z,15.6
2023-12-09T10:25:58.877Z,15.7
2023-12-09T10:27:03.791Z,16
2023-12-09T10:28:08.632Z,16.2
2023-12-09T10:29:13.414Z,14.5
2023-12-09T10:30:18.951Z,16.4
2023-12-09T10:31:23.757Z,16.1
2023-12-09T10:32:28.858Z,15.4
2023-12-09T10:33:33.454Z,14.7
2023-12-09T10:34:38.136Z,16.1
2023-12-09T10:35:45.369Z,15.9
2023-12-09T10:36:50.162Z,18.1
2023-12-09T10:37:54.874Z,16.3
2023-12-09T10:38:59.711Z,18.1
2023-12-09T10:40:04.605Z,15.6
2023-12-09T10:41:10.820Z,15.9
2023-12-09T10:42:15.526Z,16
2023-12-09T10:43:20.241Z,16.6
2023-12-09T10:44:25.045Z,14.7
2023-12-09T10:45:30.135Z,13.9
2023-12-09T10:46:36.941Z,14.8
2023-12-09T10:47:39.668Z,14.8
2023-12-09T10:48:44.490Z,16
2023-12-09T10:49:49.321Z,16.9
2023-12-09T10:50:53.952Z,17.1
2023-12-09T10:51:58.705Z,16.5
2023-12-09T10:53:03.514Z,15.5
2023-12-09T10:54:08.318Z,13.7
2023-12-09T10:55:12.963Z,14.9
2023-12-09T10:56:17.840Z,15.3
2023-12-09T10:57:22.577Z,16.3
2023-12-09T10:58:27.301Z,16.3
2023-12-09T10:59:32.063Z,15.3
2023-12-09T11:00:36.860Z,14.6
2023-12-09T11:01:41.578Z,15.5
2023-12-09T11:02:46.454Z,16.7
2023-12-09T11:03:51.197Z,16.3
2023-12-09T11:04:56.150Z,16.9
2023-12-09T11:06:00.781Z,16.5
2023-12-09T11:07:05.413Z,16.5
2023-12-09T11:08:10.221Z,16.7
2023-12-09T11:09:15.050Z,19.3
2023-12-09T11:10:20.064Z,18.7
2023-12-09T11:11:24.844Z,15.8
2023-12-09T11:12:29.998Z,16.2
2023-12-09T11:13:34.293Z,17.3
2023-12-09T11:14:39.189Z,16.6
2023-12-09T11:15:44.135Z,17.3
2023-12-09T11:16:48.870Z,17
2023-12-09T11:17:54.799Z,16.9
2023-12-09T11:18:58.629Z,17.4
2023-12-09T11:20:03.378Z,18.8
2023-12-09T11:21:13.050Z,17.2
2023-12-09T11:22:17.897Z,17.6
2023-12-09T11:23:22.560Z,18
2023-12-09T11:24:27.401Z,18.1
2023-12-09T11:25:32.274Z,19.7
2023-12-09T11:26:37.142Z,17.3
2023-12-09T11:27:42.046Z,17.1
2023-12-09T11:28:47.063Z,19.3
2023-12-09T11:30:02.276Z,17.1
2023-12-09T11:31:06.836Z,16.3
2023-12-09T11:32:11.453Z,15.4
2023-12-09T11:33:16.328Z,16.6
2023-12-09T11:34:21.394Z,18
2023-12-09T11:35:25.823Z,16.7
2023-12-09T11:36:30.600Z,17.4
2023-12-09T11:37:35.571Z,18.4
2023-12-09T11:38:40.339Z,18.3
2023-12-09T11:39:45.195Z,17
2023-12-09T11:40:49.946Z,18.7
2023-12-09T11:41:54.663Z,20.3
2023-12-09T11:42:59.403Z,20.6
2023-12-09T11:44:04.244Z,17.8
2023-12-09T11:45:08.962Z,18.6
2023-12-09T11:46:13.767Z,18.1
2023-12-09T11:47:18.484Z,17.3
2023-12-09T11:48:23.474Z,18.3
2023-12-09T11:49:28.191Z,18.7
2023-12-09T11:50:32.797Z,20.7
2023-12-09T11:51:37.657Z,18.7
2023-12-09T11:52:42.324Z,18.6
2023-12-09T11:53:47.270Z,17.1
2023-12-09T11:54:57.137Z,19.1
2023-12-09T11:56:04.551Z,16.4
2023-12-09T11:57:09.633Z,16.6
2023-12-09T11:58:15.656Z,17.7
2023-12-09T11:59:20.425Z,18.6
2023-12-09T12:00:25.323Z,20.1
2023-12-09T12:01:30.010Z,18.9
2023-12-09T12:02:34.708Z,19.1
2023-12-09T12:03:39.537Z,17.5
2023-12-09T12:04:44.355Z,18
2023-12-09T12:05:49.135Z,16.7
2023-12-09T12:06:53.787Z,17
2023-12-09T12:07:58.653Z,17.2
2023-12-09T12:09:03.383Z,15.4
2023-12-09T12:10:08.140Z,17.3
2023-12-09T12:11:13.263Z,17.9
2023-12-09T12:12:21.097Z,18.4
2023-12-09T12:13:25.959Z,19.3
2023-12-09T12:14:30.737Z,17.3
2023-12-09T12:15:35.637Z,20
2023-12-09T12:16:40.546Z,19.8
2023-12-09T12:17:45.392Z,19.9
2023-12-09T12:18:50.506Z,20.4
2023-12-09T12:19:54.915Z,18.3
2023-12-09T12:20:59.688Z,17
2023-12-09T12:22:04.396Z,18.2
2023-12-09T12:23:13.990Z,17.8
2023-12-09T12:24:15.221Z,17.1
2023-12-09T12:25:20.054Z,17.1
2023-12-09T12:26:24.737Z,16.3
2023-12-09T12:27:29.521Z,17.4
2023-12-09T12:28:37.093Z,16.7
2023-12-09T12:29:41.852Z,17
2023-12-09T12:30:46.615Z,19.3
2023-12-09T12:31:54.489Z,17.6
2023-12-09T12:32:59.370Z,19.1
2023-12-09T12:34:04.230Z,19.3
2023-12-09T12:35:16.713Z,19.5
2023-12-09T12:36:21.509Z,18.3
2023-12-09T12:37:26.285Z,17.6
2023-12-09T12:38:31.028Z,16.5
2023-12-09T12:39:35.809Z,16.9
2023-12-09T12:40:40.722Z,17.5
2023-12-09T12:41:46.049Z,18.9
2023-12-09T12:42:50.944Z,18.4
2023-12-09T12:43:55.768Z,17.8
2023-12-09T12:45:00.763Z,17.6
2023-12-09T12:46:05.479Z,18.3
2023-12-09T12:47:10.214Z,15.3
2023-12-09T12:48:15.116Z,15.9
2023-12-09T12:49:19.813Z,18.5
2023-12-09T12:50:24.484Z,17.1
2023-12-09T12:51:29.312Z,17.5
2023-12-09T12:52:34.691Z,16.4
2023-12-09T12:53:39.564Z,15
2023-12-09T12:54:44.434Z,14.9
2023-12-09T12:55:52.914Z,15.9
2023-12-09T12:56:57.866Z,16.3
2023-12-09T12:58:02.789Z,16.7
2023-12-09T12:59:07.508Z,15.1
2023-12-09T13:00:12.873Z,16.1
2023-12-09T13:01:17.316Z,14.9
2023-12-09T13:02:22.069Z,15.7
2023-12-09T13:03:26.888Z,20.2
2023-12-09T13:04:31.618Z,18.3
2023-12-09T13:05:38.057Z,18.7
2023-12-09T13:06:42.992Z,16.6
2023-12-09T13:07:47.711Z,17.1
2023-12-09T13:08:53.780Z,16.1
2023-12-09T13:09:58.507Z,15.2
2023-12-09T13:11:03.316Z,14.4
2023-12-09T13:12:08.187Z,14.7
2023-12-09T13:13:15.770Z,16.4
2023-12-09T13:14:20.669Z,16.5
2023-12-09T13:15:25.592Z,14.1
2023-12-09T13:16:30.191Z,14
2023-12-09T13:17:35.002Z,16.2
2023-12-09T13:18:39.967Z,16.1
2023-12-09T13:19:44.788Z,15.4
2023-12-09T13:20:49.522Z,15.7
2023-12-09T13:21:54.378Z,14.9
2023-12-09T13:22:59.021Z,16.1
2023-12-09T13:24:03.926Z,14.7
2023-12-09T13:25:08.855Z,14.4
2023-12-09T13:26:13.661Z,15.2
2023-12-09T13:27:18.402Z,13.8
2023-12-09T13:28:23.266Z,15.9
2023-12-09T13:29:27.899Z,15.1
2023-12-09T13:30:32.777Z,14.2
2023-12-09T13:31:37.443Z,13.8
2023-12-09T13:32:42.289Z,15.2
2023-12-09T13:33:47.052Z,15.1
2023-12-09T13:34:51.834Z,15.8
2023-12-09T13:35:56.562Z,15.3
2023-12-09T13:37:01.361Z,13.8
2023-12-09T13:38:06.053Z,14.4
2023-12-09T13:39:10.840Z,16
2023-12-09T13:40:15.876Z,16.7
2023-12-09T13:41:20.663Z,14.9
2023-12-09T13:42:25.623Z,15.6
2023-12-09T13:43:30.401Z,16.4
2023-12-09T13:44:36.969Z,17.1
2023-12-09T13:45:40.105Z,15.1
2023-12-09T13:46:44.776Z,15.7
2023-12-09T13:47:49.572Z,15.6
2023-12-09T13:48:54.469Z,17.1
2023-12-09T13:49:59.067Z,17.1
2023-12-09T13:51:03.784Z,18
2023-12-09T13:52:09.130Z,19.1
2023-12-09T13:53:13.889Z,21.3
2023-12-09T13:54:18.621Z,21.7
2023-12-09T13:55:23.410Z,21.2
2023-12-09T13:56:28.367Z,21.2
2023-12-09T13:57:33.232Z,17.3
2023-12-09T13:58:37.984Z,17.3
2023-12-09T13:59:42.875Z,19
2023-12-09T14:00:47.919Z,19.3
2023-12-09T14:01:52.502Z,18.9
2023-12-09T14:02:57.446Z,18.5
2023-12-09T14:04:02.342Z,18.4
2023-12-09T14:05:07.159Z,15.3
2023-12-09T14:06:12.183Z,15.9
2023-12-09T14:07:16.901Z,17.2
2023-12-09T14:08:21.624Z,17.4
2023-12-09T14:09:26.562Z,16.7
2023-12-09T14:10:31.447Z,18.8
2023-12-09T14:11:36.196Z,19.2
2023-12-09T14:12:40.965Z,20.3
2023-12-09T14:13:45.729Z,20.1
2023-12-09T14:14:50.534Z,18
2023-12-09T14:15:55.350Z,18.9
2023-12-09T14:17:00.018Z,19.8
2023-12-09T14:18:05.096Z,19.9
2023-12-09T14:19:09.646Z,18.7
2023-12-09T14:20:17.460Z,16.2
2023-12-09T14:21:22.167Z,18.3
2023-12-09T14:22:27.319Z,19.8
2023-12-09T14:23:31.703Z,19.1
2023-12-09T14:24:36.674Z,18.7
2023-12-09T14:25:41.617Z,17.5
2023-12-09T14:26:46.359Z,17.4
2023-12-09T14:27:51.030Z,20.6
2023-12-09T14:28:55.814Z,19.6
2023-12-09T14:30:00.603Z,17.9
2023-12-09T14:31:05.325Z,18.1
2023-12-09T14:32:10.305Z,19.2